Terminal Aerodrome Forecast
Issued by NWS Raleigh/Durham, NC

Home | Current Version | Previous Version | Text Only | Print | Product List | Glossary On
Versions: 1 2 3 4 5 6 7 8 9 10 11 12 13 14 15 16 17 18 19 20 21 22 23 24 25 26 27 28 29 30 31 32 33 34 35 36 37 38 39 40 41 42 43 44 45 46
000
FTUS42 KRAH 262320
TAFGSO
TAF
KGSO 262320Z 2700/2724 VRB04KT P6SM -SHRA OVC040
     FM270100 VRB02KT 6SM -SHRA BR OVC025
     FM270300 VRB02KT 4SM BR OVC015
      TEMPO 2703/2706 2SM RA BR OVC007
     FM270900 00000KT 4SM BR OVC015
     FM271400 29006KT P6SM BKN050
     FM272000 26007KT P6SM SCT090=

USA.gov is the U.S. government's official web portal to all federal, state and local government web resources and services.